createdAt,value
2019-02-25T00:00:31.709Z,53.49
2019-02-25T00:01:31.698Z,53.59
2019-02-25T00:02:31.685Z,53.38
2019-02-25T00:03:31.703Z,53.49
2019-02-25T00:04:31.665Z,53.59
2019-02-25T00:05:31.652Z,53.49
2019-02-25T00:06:31.648Z,52.57
2019-02-25T00:07:31.674Z,53.30
2019-02-25T00:08:34.179Z,52.88
2019-02-25T00:09:31.613Z,52.34
2019-02-25T00:10:32.180Z,52.34
2019-02-25T00:11:32.171Z,52.65
2019-02-25T00:13:30.564Z,52.86
2019-02-25T00:14:31.556Z,52.26
2019-02-25T00:15:31.556Z,52.75
2019-02-25T00:16:31.534Z,52.98
2019-02-25T00:17:32.509Z,52.44
2019-02-25T00:18:34.185Z,52.55
2019-02-25T00:19:31.507Z,52.78
2019-02-25T00:20:34.178Z,52.67
2019-02-25T00:21:31.484Z,52.55
2019-02-25T00:22:31.472Z,52.03
2019-02-25T00:23:31.491Z,52.55
2019-02-25T00:24:31.446Z,52.88
2019-02-25T00:25:31.446Z,51.82
2019-02-25T00:26:31.422Z,51.74
2019-02-25T00:27:31.422Z,52.47
2019-02-25T00:28:31.410Z,52.36
2019-02-25T00:29:31.424Z,52.67
2019-02-25T00:30:31.389Z,52.91
2019-02-25T00:31:31.368Z,52.36
2019-02-25T00:32:31.360Z,52.70
2019-02-25T00:33:31.359Z,52.28
2019-02-25T00:34:31.340Z,52.49
2019-02-25T00:35:31.340Z,52.91
2019-02-25T00:36:31.315Z,52.80
2019-02-25T00:37:31.316Z,52.91
2019-02-25T00:38:32.171Z,52.93
2019-02-25T00:39:31.285Z,53.25
2019-02-25T00:40:31.275Z,53.43
2019-02-25T00:41:31.271Z,53.53
2019-02-25T00:42:31.250Z,53.03
2019-02-25T00:43:31.245Z,54.18
2019-02-25T00:44:31.250Z,54.80
2019-02-25T00:45:31.226Z,54.62
2019-02-25T00:46:31.208Z,55.35
2019-02-25T00:47:31.224Z,54.93
2019-02-25T00:48:31.189Z,56.18
2019-02-25T00:49:31.215Z,55.98
2019-02-25T00:50:31.168Z,56.18
2019-02-25T00:51:31.160Z,56.60
2019-02-25T00:52:31.146Z,56.18
2019-02-25T00:53:31.133Z,56.18
2019-02-25T00:54:31.149Z,56.29
2019-02-25T00:55:31.111Z,56.18
2019-02-25T00:56:31.101Z,55.77
2019-02-25T00:57:31.087Z,55.56
2019-02-25T00:58:31.077Z,56.26
2019-02-25T00:59:31.095Z,56.26
2019-02-25T01:00:31.064Z,56.26
2019-02-25T01:01:31.045Z,55.53
2019-02-25T01:02:31.037Z,55.32
2019-02-25T01:03:31.023Z,55.11
2019-02-25T01:04:31.036Z,55.32
2019-02-25T01:05:31.009Z,55.22
2019-02-25T01:06:30.987Z,55.11
2019-02-25T01:07:30.985Z,54.91
2019-02-25T01:08:31.663Z,55.43
2019-02-25T01:09:31.659Z,55.01
2019-02-25T01:10:30.945Z,54.28
2019-02-25T01:11:30.933Z,55.01
2019-02-25T01:12:30.925Z,54.39
2019-02-25T01:13:30.915Z,54.08
2019-02-25T01:14:30.931Z,54.49
2019-02-25T01:15:30.891Z,54.91
2019-02-25T01:16:30.885Z,54.08
2019-02-25T01:17:30.870Z,54.49
2019-02-25T01:18:30.864Z,54.49
2019-02-25T01:19:30.880Z,54.49
2019-02-25T01:20:30.839Z,54.39
2019-02-25T01:21:30.823Z,54.18
2019-02-25T01:22:30.815Z,54.28
2019-02-25T01:23:30.804Z,54.26
2019-02-25T01:24:30.794Z,53.97
2019-02-25T01:25:30.809Z,54.49
2019-02-25T01:26:30.771Z,53.56
2019-02-25T01:27:30.759Z,54.18
2019-02-25T01:28:30.752Z,54.10
2019-02-25T01:29:30.744Z,54.60
2019-02-25T01:30:30.729Z,54.80
2019-02-25T01:31:30.753Z,54.21
2019-02-25T01:32:30.709Z,54.52
2019-02-25T01:33:30.720Z,54.93
2019-02-25T01:34:30.690Z,55.79
2019-02-25T01:35:30.675Z,56.62
2019-02-25T01:36:30.661Z,56.13
2019-02-25T01:37:30.662Z,56.23
2019-02-25T01:38:30.643Z,56.44
2019-02-25T01:39:30.631Z,55.71
2019-02-25T01:40:30.623Z,56.34
2019-02-25T01:41:30.609Z,56.65
2019-02-25T01:42:30.624Z,56.65
2019-02-25T01:43:30.590Z,56.34
2019-02-25T01:44:30.576Z,56.23
2019-02-25T01:45:30.567Z,56.54
2019-02-25T01:46:30.552Z,56.96
2019-02-25T01:47:30.576Z,56.13
2019-02-25T01:48:30.536Z,56.54
2019-02-25T01:49:30.522Z,56.31
2019-02-25T01:50:30.509Z,55.58
2019-02-25T01:51:30.499Z,54.96
2019-02-25T01:52:30.492Z,55.38
2019-02-25T01:53:30.506Z,55.27
2019-02-25T01:54:30.467Z,55.14
2019-02-25T01:55:30.451Z,55.14
2019-02-25T01:56:30.449Z,55.48
2019-02-25T01:57:30.459Z,55.38
2019-02-25T01:58:30.427Z,55.38
2019-02-25T01:59:30.417Z,55.16
2019-02-25T02:00:30.401Z,55.48
2019-02-25T02:01:30.390Z,54.85
2019-02-25T02:02:33.139Z,54.31
2019-02-25T02:03:30.393Z,54.21
2019-02-25T02:04:30.359Z,54.31
2019-02-25T02:05:30.345Z,54.83
2019-02-25T02:06:30.330Z,54.31
2019-02-25T02:07:30.331Z,54.49
2019-02-25T02:08:33.141Z,54.72
2019-02-25T02:09:30.303Z,54.72
2019-02-25T02:10:30.292Z,54.72
2019-02-25T02:11:30.281Z,54.31
2019-02-25T02:12:32.163Z,54.52
2019-02-25T02:13:30.257Z,54.62
2019-02-25T02:14:30.281Z,54.39
2019-02-25T02:15:30.235Z,54.83
2019-02-25T02:16:30.227Z,54.21
2019-02-25T02:17:30.219Z,54.21
2019-02-25T02:18:30.211Z,54.62
2019-02-25T02:19:30.196Z,54.52
2019-02-25T02:20:30.185Z,54.91
2019-02-25T02:21:30.169Z,54.72
2019-02-25T02:22:30.161Z,54.72
2019-02-25T02:23:30.189Z,54.72
2019-02-25T02:24:31.131Z,54.41
2019-02-25T02:25:30.130Z,54.21
2019-02-25T02:26:30.116Z,54.39
2019-02-25T02:27:30.107Z,54.52
2019-02-25T02:28:30.093Z,54.31
2019-02-25T02:29:30.084Z,54.93
2019-02-25T02:30:30.098Z,54.31
2019-02-25T02:31:30.066Z,54.52
2019-02-25T02:32:30.055Z,54.96
2019-02-25T02:33:30.039Z,54.33
2019-02-25T02:34:30.027Z,54.54
2019-02-25T02:35:30.048Z,55.27
2019-02-25T02:36:30.022Z,55.16
2019-02-25T02:37:30.001Z,55.27
2019-02-25T02:38:29.996Z,54.33
2019-02-25T02:39:29.975Z,54.62
2019-02-25T02:40:29.988Z,54.85
2019-02-25T02:41:29.957Z,54.62
2019-02-25T02:42:29.949Z,54.41
2019-02-25T02:43:29.967Z,54.64
2019-02-25T02:44:29.921Z,54.41
2019-02-25T02:45:29.963Z,54.21
2019-02-25T02:46:29.903Z,54.72
2019-02-25T02:47:29.888Z,54.62
2019-02-25T02:48:29.880Z,54.41
2019-02-25T02:49:29.890Z,54.72
2019-02-25T02:50:29.890Z,54.93
2019-02-25T02:51:29.849Z,54.31
2019-02-25T02:52:29.842Z,54.52
2019-02-25T02:53:29.823Z,54.93
2019-02-25T02:54:32.627Z,54.52
2019-02-25T02:55:29.800Z,54.41
2019-02-25T02:56:29.823Z,54.31
2019-02-25T02:57:29.777Z,54.10
2019-02-25T02:58:29.775Z,54.41
2019-02-25T02:59:29.762Z,53.79
2019-02-25T03:00:29.752Z,53.48
2019-02-25T03:01:29.733Z,54.10
2019-02-25T03:02:29.765Z,54.00
2019-02-25T03:03:29.718Z,53.58
2019-02-25T03:04:29.711Z,53.06
2019-02-25T03:05:29.697Z,54.93
2019-02-25T03:06:29.710Z,55.16
2019-02-25T03:07:29.671Z,54.64
2019-02-25T03:08:29.659Z,54.85
2019-02-25T03:09:29.651Z,54.13
2019-02-25T03:10:29.638Z,54.75
2019-02-25T03:11:29.654Z,54.44
2019-02-25T03:12:29.622Z,54.54
2019-02-25T03:13:29.603Z,54.36
2019-02-25T03:14:29.599Z,55.48
2019-02-25T03:15:30.125Z,55.61
2019-02-25T03:16:29.597Z,55.30
2019-02-25T03:17:29.573Z,54.23
2019-02-25T03:18:29.552Z,55.06
2019-02-25T03:19:29.544Z,55.16
2019-02-25T03:20:29.529Z,54.64
2019-02-25T03:21:29.554Z,55.06
2019-02-25T03:22:29.506Z,54.54
2019-02-25T03:23:29.500Z,54.96
2019-02-25T03:24:29.492Z,55.06
2019-02-25T03:25:29.477Z,54.96
2019-02-25T03:26:29.463Z,54.21
2019-02-25T03:27:29.503Z,54.21
2019-02-25T03:28:30.115Z,54.83
2019-02-25T03:29:29.434Z,54.96
2019-02-25T03:30:29.426Z,54.83
2019-02-25T03:31:29.436Z,54.52
2019-02-25T03:32:29.406Z,54.52
2019-02-25T03:33:29.432Z,54.72
2019-02-25T03:34:29.379Z,54.85
2019-02-25T03:35:29.365Z,54.64
2019-02-25T03:36:29.353Z,54.93
2019-02-25T03:37:29.350Z,55.04
2019-02-25T03:38:29.360Z,54.62
2019-02-25T03:39:29.323Z,54.21
2019-02-25T03:40:29.311Z,54.23
2019-02-25T03:41:29.301Z,54.23
2019-02-25T03:42:29.291Z,55.14
2019-02-25T03:43:29.321Z,54.96
2019-02-25T03:44:29.268Z,55.27
2019-02-25T03:45:29.254Z,54.31
2019-02-25T03:46:29.249Z,54.54
2019-02-25T03:47:29.231Z,54.72
2019-02-25T03:48:29.221Z,55.04
2019-02-25T03:49:29.244Z,54.31
2019-02-25T03:50:29.202Z,55.06
2019-02-25T03:51:29.193Z,54.52
2019-02-25T03:52:29.176Z,55.38
2019-02-25T03:53:29.170Z,55.06
2019-02-25T03:54:29.189Z,55.48
2019-02-25T03:55:29.153Z,55.06
2019-02-25T03:56:29.140Z,55.27
2019-02-25T03:57:29.127Z,55.38
2019-02-25T03:58:29.116Z,55.69
2019-02-25T03:59:29.103Z,54.54
2019-02-25T04:00:29.125Z,54.54
2019-02-25T04:01:29.090Z,54.52
2019-02-25T04:02:29.076Z,54.33
2019-02-25T04:03:29.059Z,54.75
2019-02-25T04:04:29.605Z,54.96
2019-02-25T04:05:29.046Z,54.33
2019-02-25T04:06:29.031Z,54.44
2019-02-25T04:07:29.024Z,54.33
2019-02-25T04:08:29.007Z,55.40
2019-02-25T04:09:29.003Z,55.71
2019-02-25T04:10:29.029Z,55.51
2019-02-25T04:11:28.976Z,55.30
2019-02-25T04:12:28.961Z,55.30
2019-02-25T04:13:28.953Z,54.99
2019-02-25T04:14:28.948Z,55.30
2019-02-25T04:15:28.932Z,55.30
2019-02-25T04:16:28.941Z,55.19
2019-02-25T04:17:28.907Z,55.30
2019-02-25T04:18:28.894Z,55.40
2019-02-25T04:19:28.890Z,55.19
2019-02-25T04:20:28.885Z,54.88
2019-02-25T04:21:28.888Z,54.99
2019-02-25T04:22:28.864Z,55.61
2019-02-25T04:23:31.592Z,55.30
2019-02-25T04:24:28.829Z,55.30
2019-02-25T04:25:28.832Z,54.99
2019-02-25T04:26:28.830Z,55.40
2019-02-25T04:27:28.803Z,55.30
2019-02-25T04:28:28.792Z,55.51
2019-02-25T04:29:28.780Z,55.19
2019-02-25T04:30:28.766Z,55.09
2019-02-25T04:31:28.792Z,55.11
2019-02-25T04:32:28.736Z,55.61
2019-02-25T04:33:28.734Z,56.05
2019-02-25T04:34:28.720Z,56.26
2019-02-25T04:35:28.726Z,56.15
2019-02-25T04:36:28.704Z,56.26
2019-02-25T04:37:28.733Z,56.15
2019-02-25T04:38:28.674Z,56.47
2019-02-25T04:39:28.668Z,56.26
2019-02-25T04:40:28.656Z,56.57
2019-02-25T04:41:28.646Z,56.37
2019-02-25T04:42:28.638Z,56.37
2019-02-25T04:43:28.657Z,56.88
2019-02-25T04:44:28.611Z,56.26
2019-02-25T04:45:28.607Z,56.26
2019-02-25T04:46:28.598Z,56.88
2019-02-25T04:47:28.582Z,56.47
2019-02-25T04:48:28.570Z,56.47
2019-02-25T04:49:28.599Z,56.88
2019-02-25T04:50:28.561Z,56.15
2019-02-25T04:51:28.536Z,56.37
2019-02-25T04:52:28.535Z,56.15
2019-02-25T04:53:28.523Z,56.47
2019-02-25T04:54:28.507Z,57.09
2019-02-25T04:55:28.521Z,56.88
2019-02-25T04:56:28.490Z,57.30
2019-02-25T04:57:28.478Z,56.78
2019-02-25T04:58:28.458Z,56.88
2019-02-25T04:59:28.448Z,56.99
2019-02-25T05:00:31.082Z,56.99
2019-02-25T05:01:28.464Z,56.88
2019-02-25T05:02:28.415Z,57.20
2019-02-25T05:03:28.410Z,57.09
2019-02-25T05:04:28.408Z,56.88
2019-02-25T05:05:28.388Z,57.20
2019-02-25T05:06:28.374Z,57.20
2019-02-25T05:07:28.412Z,56.78
2019-02-25T05:08:28.353Z,56.88
2019-02-25T05:09:28.342Z,57.20
2019-02-25T05:10:28.330Z,57.01
2019-02-25T05:11:28.314Z,57.09
2019-02-25T05:12:28.304Z,57.30
2019-02-25T05:13:28.324Z,56.99
2019-02-25T05:14:28.283Z,56.88
2019-02-25T05:15:28.274Z,57.20
2019-02-25T05:16:28.261Z,57.40
2019-02-25T05:17:28.316Z,56.68
2019-02-25T05:18:28.240Z,56.78
2019-02-25T05:19:28.228Z,57.20
2019-02-25T05:20:28.220Z,57.61
2019-02-25T05:21:28.209Z,56.57
2019-02-25T05:22:29.073Z,57.20
2019-02-25T05:23:28.218Z,56.99
2019-02-25T05:24:28.182Z,57.30
2019-02-25T05:25:28.273Z,57.43
2019-02-25T05:26:28.148Z,56.49
2019-02-25T05:27:28.143Z,57.54
2019-02-25T05:28:28.130Z,57.54
2019-02-25T05:29:28.174Z,57.85
2019-02-25T05:30:28.105Z,57.32
2019-02-25T05:31:28.096Z,57.32
2019-02-25T05:32:28.094Z,57.85
2019-02-25T05:33:28.568Z,57.85
2019-02-25T05:34:28.062Z,56.70
2019-02-25T05:35:28.084Z,57.51
2019-02-25T05:36:28.047Z,56.78
2019-02-25T05:37:28.570Z,57.61
2019-02-25T05:38:28.022Z,57.40
2019-02-25T05:40:27.008Z,57.20
2019-02-25T05:41:28.014Z,56.68
2019-02-25T05:42:27.977Z,56.88
2019-02-25T05:43:30.570Z,57.30
2019-02-25T05:44:27.960Z,57.40
2019-02-25T05:45:27.944Z,57.30
2019-02-25T05:46:27.960Z,56.37
2019-02-25T05:47:27.927Z,56.68
2019-02-25T05:48:27.928Z,56.37
2019-02-25T05:49:27.906Z,56.99
2019-02-25T05:50:27.887Z,56.26
2019-02-25T05:51:27.888Z,56.99
2019-02-25T05:52:30.565Z,56.47
2019-02-25T05:53:27.852Z,56.78
2019-02-25T05:54:27.846Z,57.09
2019-02-25T05:55:27.862Z,57.40
2019-02-25T05:56:27.820Z,57.20
2019-02-25T05:57:27.812Z,56.47
2019-02-25T05:58:27.804Z,56.47
2019-02-25T05:59:27.795Z,56.65
2019-02-25T06:00:27.783Z,56.26
2019-02-25T06:01:27.804Z,56.26
2019-02-25T06:02:27.760Z,56.68
2019-02-25T06:03:27.751Z,56.88
2019-02-25T06:04:27.734Z,57.51
2019-02-25T06:05:27.724Z,58.03
2019-02-25T06:06:27.752Z,57.93
2019-02-25T06:07:27.706Z,58.14
2019-02-25T06:08:27.696Z,58.03
2019-02-25T06:09:27.680Z,57.93
2019-02-25T06:10:27.701Z,58.14
2019-02-25T06:11:27.667Z,58.24
2019-02-25T06:12:27.651Z,58.14
2019-02-25T06:13:27.636Z,58.45
2019-02-25T06:14:27.629Z,58.97
2019-02-25T06:15:27.624Z,59.07
2019-02-25T06:16:27.639Z,58.86
2019-02-25T06:17:27.602Z,58.97
2019-02-25T06:18:27.581Z,59.28
2019-02-25T06:19:27.576Z,59.28
2019-02-25T06:20:27.591Z,59.28
2019-02-25T06:21:27.548Z,58.97
2019-02-25T06:22:27.540Z,58.86
2019-02-25T06:23:27.529Z,58.65
2019-02-25T06:24:27.520Z,58.45
2019-02-25T06:25:27.512Z,58.86
2019-02-25T06:26:27.534Z,58.14
2019-02-25T06:27:30.717Z,57.40
2019-02-25T06:28:27.483Z,57.82
2019-02-25T06:29:27.458Z,57.61
2019-02-25T06:30:27.459Z,56.88
2019-02-25T06:31:27.440Z,56.99
2019-02-25T06:32:27.458Z,56.57
2019-02-25T06:33:27.423Z,56.57
2019-02-25T06:34:27.414Z,56.15
2019-02-25T06:35:28.053Z,56.57
2019-02-25T06:36:27.421Z,56.37
2019-02-25T06:37:27.375Z,56.78
2019-02-25T06:38:27.360Z,56.57
2019-02-25T06:39:27.353Z,56.78
2019-02-25T06:40:27.376Z,56.37
2019-02-25T06:41:27.331Z,56.15
2019-02-25T06:42:27.346Z,56.47
2019-02-25T06:43:27.314Z,56.15
2019-02-25T06:44:27.300Z,56.37
2019-02-25T06:45:27.290Z,56.05
2019-02-25T06:46:27.302Z,55.94
2019-02-25T06:47:27.264Z,56.15
2019-02-25T06:48:27.256Z,55.71
2019-02-25T06:49:27.251Z,55.61
2019-02-25T06:50:27.234Z,55.30
2019-02-25T06:51:27.252Z,54.96
2019-02-25T06:52:27.210Z,55.09
2019-02-25T06:53:27.205Z,55.48
2019-02-25T06:54:27.184Z,55.30
2019-02-25T06:55:27.198Z,54.96
2019-02-25T06:56:27.205Z,55.38
2019-02-25T06:57:27.156Z,55.51
2019-02-25T06:58:27.143Z,55.48
2019-02-25T07:00:26.126Z,54.44
2019-02-25T07:01:28.042Z,55.69
2019-02-25T07:02:28.110Z,55.38
2019-02-25T07:03:27.089Z,56.21
2019-02-25T07:04:27.090Z,55.38
2019-02-25T07:05:27.074Z,55.58
2019-02-25T07:06:27.056Z,56.21
2019-02-25T07:07:27.050Z,55.69
2019-02-25T07:08:27.062Z,54.33
2019-02-25T07:09:27.535Z,54.31
2019-02-25T07:10:27.008Z,54.52
2019-02-25T07:11:27.004Z,54.21
2019-02-25T07:12:27.110Z,55.14
2019-02-25T07:13:26.980Z,54.83
2019-02-25T07:14:26.966Z,55.14
2019-02-25T07:15:26.966Z,54.62
2019-02-25T07:16:27.539Z,54.10
2019-02-25T07:17:27.539Z,54.10
2019-02-25T07:18:26.929Z,53.69
2019-02-25T07:19:26.919Z,53.27
2019-02-25T07:20:26.905Z,53.58
2019-02-25T07:21:26.896Z,53.69
2019-02-25T07:22:26.912Z,53.69
2019-02-25T07:23:26.904Z,52.95
2019-02-25T07:24:26.872Z,53.16
2019-02-25T07:25:29.539Z,53.16
2019-02-25T07:26:27.607Z,53.79
2019-02-25T07:27:26.834Z,53.35
2019-02-25T07:28:30.530Z,53.27
2019-02-25T07:29:26.805Z,53.69
2019-02-25T07:30:26.795Z,53.38
2019-02-25T07:31:26.792Z,53.48
2019-02-25T07:32:26.773Z,53.48
2019-02-25T07:33:26.768Z,54.21
2019-02-25T07:34:26.785Z,54.31
2019-02-25T07:35:26.745Z,54.10
2019-02-25T07:36:26.729Z,54.52
2019-02-25T07:37:26.721Z,54.70
2019-02-25T07:38:26.710Z,54.08
2019-02-25T07:39:26.695Z,54.39
2019-02-25T07:40:26.726Z,54.39
2019-02-25T07:41:26.680Z,53.25
2019-02-25T07:42:26.663Z,53.56
2019-02-25T07:43:29.519Z,53.43
2019-02-25T07:44:26.638Z,53.56
2019-02-25T07:45:26.667Z,53.22
2019-02-25T07:46:26.674Z,54.26
2019-02-25T07:47:26.607Z,53.64
2019-02-25T07:48:26.597Z,53.11
2019-02-25T07:49:26.586Z,53.43
2019-02-25T07:50:26.581Z,53.53
2019-02-25T07:51:26.628Z,53.22
2019-02-25T07:52:26.596Z,52.70
2019-02-25T07:53:27.029Z,52.57
2019-02-25T07:54:26.532Z,52.26
2019-02-25T07:55:26.526Z,51.95
2019-02-25T07:56:27.069Z,52.36
2019-02-25T07:57:26.501Z,52.36
2019-02-25T07:58:26.490Z,51.64
2019-02-25T07:59:26.481Z,51.53
2019-02-25T08:00:26.481Z,51.53
2019-02-25T08:01:26.458Z,52.36
2019-02-25T08:02:26.479Z,52.05
2019-02-25T08:03:26.501Z,52.88
2019-02-25T08:04:26.429Z,53.17
2019-02-25T08:05:26.423Z,52.75
2019-02-25T08:06:26.410Z,51.92
2019-02-25T08:07:26.420Z,52.75
2019-02-25T08:08:27.018Z,51.40
2019-02-25T08:09:26.387Z,51.09
2019-02-25T08:10:26.359Z,51.30
2019-02-25T08:11:26.358Z,50.78
2019-02-25T08:12:26.347Z,50.86
2019-02-25T08:13:26.368Z,50.78
2019-02-25T08:14:26.325Z,50.89
2019-02-25T08:15:26.320Z,50.96
2019-02-25T08:16:26.287Z,51.59
2019-02-25T08:17:26.281Z,52.00
2019-02-25T08:18:26.278Z,51.69
2019-02-25T08:19:26.292Z,52.62
2019-02-25T08:20:26.256Z,51.59
2019-02-25T08:21:26.238Z,52.00
2019-02-25T08:22:26.237Z,51.57
2019-02-25T08:23:27.013Z,51.38
2019-02-25T08:24:30.644Z,50.95
2019-02-25T08:25:26.226Z,51.26
2019-02-25T08:26:26.184Z,50.74
2019-02-25T08:27:26.186Z,50.43
2019-02-25T08:28:26.169Z,49.91
2019-02-25T08:29:26.152Z,50.40
2019-02-25T08:30:26.144Z,49.91
2019-02-25T08:31:29.559Z,49.16
2019-02-25T08:32:26.137Z,49.05
2019-02-25T08:33:26.110Z,50.20
2019-02-25T08:34:26.102Z,48.95
2019-02-25T08:35:26.087Z,49.26
2019-02-25T08:36:26.074Z,49.05
2019-02-25T08:37:26.104Z,49.26
2019-02-25T08:38:26.061Z,48.85
2019-02-25T08:40:27.517Z,50.07
2019-02-25T08:41:26.019Z,49.86
2019-02-25T08:42:26.019Z,49.86
2019-02-25T08:43:26.031Z,50.07
2019-02-25T08:44:26.007Z,48.69
2019-02-25T08:45:25.984Z,49.21
2019-02-25T08:46:25.980Z,49.21
2019-02-25T08:47:25.964Z,48.80
2019-02-25T08:48:25.982Z,48.80
2019-02-25T08:49:25.948Z,48.99
2019-02-25T08:50:25.936Z,48.08
2019-02-25T08:51:25.911Z,47.97
2019-02-25T08:52:25.904Z,48.26
2019-02-25T08:53:25.897Z,48.26
2019-02-25T08:54:25.911Z,48.26
2019-02-25T08:55:25.874Z,48.16
2019-02-25T08:56:25.893Z,47.85
2019-02-25T08:57:25.857Z,48.26
2019-02-25T08:58:26.051Z,48.68
2019-02-25T08:59:25.824Z,49.17
2019-02-25T09:00:25.816Z,48.86
2019-02-25T09:01:25.823Z,48.86
2019-02-25T09:02:25.800Z,49.38
2019-02-25T09:03:25.915Z,48.65
2019-02-25T09:04:25.813Z,48.75
2019-02-25T09:05:25.769Z,48.55
2019-02-25T09:06:25.750Z,48.63
2019-02-25T09:07:25.741Z,48.53
2019-02-25T09:08:25.729Z,48.43
2019-02-25T09:09:25.755Z,48.01
2019-02-25T09:10:25.708Z,47.80
2019-02-25T09:11:25.698Z,48.01
2019-02-25T09:12:25.697Z,47.28
2019-02-25T09:13:25.681Z,48.11
2019-02-25T09:14:25.669Z,47.80
2019-02-25T09:15:27.526Z,47.27
2019-02-25T09:16:25.650Z,47.78
2019-02-25T09:17:25.632Z,47.47
2019-02-25T09:18:25.639Z,46.85
2019-02-25T09:19:25.610Z,48.09
2019-02-25T09:20:25.609Z,47.03
2019-02-25T09:21:31.648Z,46.83
2019-02-25T09:22:28.492Z,47.03
2019-02-25T09:23:25.576Z,45.90
2019-02-25T09:24:25.581Z,45.90
2019-02-25T09:25:25.547Z,45.77
2019-02-25T09:26:25.534Z,44.74
2019-02-25T09:27:25.575Z,45.47
2019-02-25T09:28:25.997Z,44.12
2019-02-25T09:29:25.527Z,44.10
2019-02-25T09:30:25.495Z,43.17
2019-02-25T09:31:25.515Z,42.55
2019-02-25T09:32:25.463Z,44.20
2019-02-25T09:33:25.468Z,44.72
2019-02-25T09:34:25.450Z,45.34
2019-02-25T09:35:25.437Z,44.31
2019-02-25T09:36:25.766Z,44.90
2019-02-25T09:37:25.474Z,44.49
2019-02-25T09:38:25.418Z,43.98
2019-02-25T09:39:25.401Z,44.90
2019-02-25T09:40:25.384Z,44.59
2019-02-25T09:41:29.837Z,43.85
2019-02-25T09:42:25.364Z,44.26
2019-02-25T09:43:26.059Z,43.75
2019-02-25T09:44:25.358Z,43.65
2019-02-25T09:45:25.335Z,43.54
2019-02-25T09:46:25.345Z,43.93
2019-02-25T09:47:25.333Z,43.33
2019-02-25T09:48:25.303Z,43.32
2019-02-25T09:49:25.293Z,43.11
2019-02-25T09:50:25.278Z,43.63
2019-02-25T09:51:25.296Z,42.57
2019-02-25T09:52:25.255Z,42.57
2019-02-25T09:53:25.265Z,42.68
2019-02-25T09:54:25.244Z,42.78
2019-02-25T09:55:25.225Z,42.99
2019-02-25T09:56:26.033Z,42.68
2019-02-25T09:57:25.205Z,42.35
2019-02-25T09:58:25.189Z,42.24
2019-02-25T09:59:25.183Z,42.14
2019-02-25T10:00:25.983Z,41.63
2019-02-25T10:01:27.989Z,42.24
2019-02-25T10:02:25.145Z,42.45
2019-02-25T10:03:25.143Z,41.50
2019-02-25T10:04:25.129Z,39.96
2019-02-25T10:05:25.157Z,40.47
2019-02-25T10:06:25.118Z,40.68
2019-02-25T10:07:25.085Z,40.06
2019-02-25T10:08:25.086Z,41.30
2019-02-25T10:09:29.892Z,40.56
2019-02-25T10:10:25.057Z,40.45
2019-02-25T10:11:25.077Z,39.63
2019-02-25T10:12:25.086Z,39.82
2019-02-25T10:13:25.055Z,40.35
2019-02-25T10:14:25.027Z,39.61
2019-02-25T10:15:25.005Z,40.13
2019-02-25T10:16:24.992Z,39.72
2019-02-25T10:17:24.983Z,39.39
2019-02-25T10:18:25.007Z,39.29
2019-02-25T10:19:24.967Z,38.96
2019-02-25T10:20:25.006Z,39.27
2019-02-25T10:21:24.933Z,39.48
2019-02-25T10:22:24.929Z,39.17
2019-02-25T10:23:24.916Z,39.27
2019-02-25T10:24:24.904Z,38.94
2019-02-25T10:25:24.935Z,39.04
2019-02-25T10:26:24.883Z,38.53
2019-02-25T10:27:24.867Z,38.53
2019-02-25T10:28:24.920Z,38.53
2019-02-25T10:29:24.850Z,39.03
2019-02-25T10:30:24.840Z,38.82
2019-02-25T10:31:24.863Z,39.23
2019-02-25T10:32:27.923Z,38.31
2019-02-25T10:33:24.799Z,37.68
2019-02-25T10:34:24.825Z,37.47
2019-02-25T10:35:25.029Z,37.68
2019-02-25T10:36:24.780Z,36.96
2019-02-25T10:37:24.779Z,36.75
2019-02-25T10:38:24.787Z,36.65
2019-02-25T10:39:24.737Z,36.63
2019-02-25T10:40:27.418Z,36.63
2019-02-25T10:41:26.187Z,36.73
2019-02-25T10:42:24.706Z,36.61
2019-02-25T10:43:26.082Z,36.72
2019-02-25T10:44:24.685Z,36.10
2019-02-25T10:45:24.675Z,36.82
2019-02-25T10:46:24.673Z,36.82
2019-02-25T10:47:24.683Z,36.29
2019-02-25T10:48:25.837Z,36.08
2019-02-25T10:49:26.669Z,36.38
2019-02-25T10:50:24.623Z,35.25
2019-02-25T10:51:24.627Z,35.46
2019-02-25T10:52:24.619Z,35.64
2019-02-25T10:53:24.586Z,35.13
2019-02-25T10:54:25.486Z,35.13
2019-02-25T10:55:25.471Z,34.62
2019-02-25T10:56:25.919Z,34.52
2019-02-25T10:57:26.583Z,34.19
2019-02-25T10:58:25.315Z,34.31
2019-02-25T10:59:24.527Z,33.68
2019-02-25T11:00:24.499Z,34.07
2019-02-25T11:01:24.722Z,34.28
2019-02-25T11:02:24.498Z,34.17
2019-02-25T11:03:24.482Z,33.36
2019-02-25T11:04:26.227Z,33.97
2019-02-25T11:05:25.936Z,33.03
2019-02-25T11:06:25.212Z,32.32
2019-02-25T11:07:24.434Z,33.34
2019-02-25T11:08:26.965Z,32.73
2019-02-25T11:09:24.410Z,32.11
2019-02-25T11:10:24.405Z,32.31
2019-02-25T11:11:27.222Z,32.10
2019-02-25T11:12:25.808Z,32.31
2019-02-25T11:13:25.560Z,32.61
2019-02-25T11:14:24.353Z,31.59
2019-02-25T11:15:24.967Z,32.31
2019-02-25T11:16:24.337Z,32.18
2019-02-25T11:17:24.542Z,32.29
2019-02-25T11:18:26.167Z,31.98
2019-02-25T11:19:24.916Z,30.65
2019-02-25T11:20:24.963Z,31.47
2019-02-25T11:21:24.275Z,30.96
2019-02-25T11:22:24.266Z,30.76
2019-02-25T11:23:24.260Z,30.64
2019-02-25T11:24:25.399Z,29.82
2019-02-25T11:25:26.310Z,30.54
2019-02-25T11:26:26.100Z,30.33
2019-02-25T11:27:28.488Z,30.02
2019-02-25T11:28:26.115Z,30.43
2019-02-25T11:29:24.196Z,30.54
2019-02-25T11:30:24.221Z,30.94
2019-02-25T11:31:26.673Z,30.02
2019-02-25T11:32:25.900Z,30.83
2019-02-25T11:34:23.960Z,30.62
2019-02-25T11:35:24.153Z,30.73
2019-02-25T11:36:24.112Z,30.42
2019-02-25T11:37:24.759Z,29.10
2019-02-25T11:38:25.925Z,28.67
2019-02-25T11:39:25.372Z,28.57
2019-02-25T11:40:25.915Z,29.18
2019-02-25T11:41:24.091Z,27.95
2019-02-25T11:42:24.048Z,26.22
2019-02-25T11:43:24.033Z,26.12
2019-02-25T11:44:25.918Z,25.40
2019-02-25T11:45:24.009Z,25.20
2019-02-25T11:46:24.003Z,24.88
2019-02-25T11:47:26.998Z,24.07
2019-02-25T11:48:23.979Z,23.46
2019-02-25T11:49:23.980Z,23.97
2019-02-25T11:50:23.955Z,24.17
2019-02-25T11:51:23.945Z,23.65
2019-02-25T11:52:23.934Z,23.14
2019-02-25T11:53:23.953Z,24.67
2019-02-25T11:54:23.918Z,24.26
2019-02-25T11:55:23.899Z,23.35
2019-02-25T11:56:23.892Z,23.24
2019-02-25T11:57:23.904Z,23.24
2019-02-25T11:58:23.868Z,22.94
2019-02-25T11:59:23.948Z,22.92
2019-02-25T12:00:23.851Z,22.94
2019-02-25T12:01:23.859Z,22.62
2019-02-25T12:02:25.842Z,22.41
2019-02-25T12:03:23.826Z,23.23
2019-02-25T12:04:23.808Z,23.43
2019-02-25T12:05:23.789Z,21.19
2019-02-25T12:06:23.838Z,20.58
2019-02-25T12:07:23.771Z,20.58
2019-02-25T12:08:23.762Z,20.87
2019-02-25T12:09:23.752Z,21.19
2019-02-25T12:10:23.746Z,21.60
2019-02-25T12:11:23.729Z,22.72
2019-02-25T12:12:23.764Z,23.02
2019-02-25T12:13:23.708Z,23.63
2019-02-25T12:14:23.702Z,22.91
2019-02-25T12:15:23.690Z,23.93
2019-02-25T12:16:23.682Z,23.93
2019-02-25T12:17:23.663Z,23.73
2019-02-25T12:18:23.682Z,23.52
2019-02-25T12:19:23.640Z,22.29
2019-02-25T12:20:23.632Z,22.50
2019-02-25T12:21:23.622Z,22.41
2019-02-25T12:22:23.597Z,22.30
2019-02-25T12:23:23.602Z,22.60
2019-02-25T12:24:23.614Z,22.39
2019-02-25T12:25:23.580Z,21.78
2019-02-25T12:26:23.598Z,22.19
2019-02-25T12:27:23.552Z,22.29
2019-02-25T12:28:23.544Z,22.59
2019-02-25T12:29:23.575Z,22.80
2019-02-25T12:30:23.531Z,23.11
2019-02-25T12:31:23.520Z,24.11
2019-02-25T12:32:23.502Z,24.73
2019-02-25T12:33:23.544Z,24.32
2019-02-25T12:34:23.521Z,24.93
2019-02-25T12:35:23.500Z,25.34
2019-02-25T12:36:23.461Z,24.73
2019-02-25T12:37:23.478Z,24.32
2019-02-25T12:38:23.436Z,24.71
2019-02-25T12:39:23.429Z,25.23
2019-02-25T12:40:23.420Z,25.64
2019-02-25T12:41:23.408Z,25.23
2019-02-25T12:43:22.424Z,24.11
2019-02-25T12:44:23.374Z,24.21
2019-02-25T12:45:23.357Z,24.21
2019-02-25T12:46:23.356Z,24.82
2019-02-25T12:47:23.350Z,24.41
2019-02-25T12:48:23.457Z,23.60
2019-02-25T12:49:23.316Z,24.00
2019-02-25T12:50:23.313Z,23.49
2019-02-25T12:51:23.300Z,23.68
2019-02-25T12:52:23.278Z,23.38
2019-02-25T12:53:23.277Z,23.38
2019-02-25T12:54:23.297Z,23.79
2019-02-25T12:55:23.250Z,24.29
2019-02-25T12:56:23.236Z,24.19
2019-02-25T12:57:23.226Z,23.58
2019-02-25T12:58:23.268Z,23.89